Time;durP1;ratioP1;P1;durP2;ratioP2;P2;SDS_P1;SDS_P2;PMS_P1;PMS_P2;Temp;Humidity;BMP_temperature;BMP_pressure;BME280_temperature;BME280_humidity;BME280_pressure;Samples;Min_cycle;Max_cycle;Signal;HPM_P1;HPM_P2
2022/06/17 00:02:24;;;;;;;6.95;4.13;;;26.40;44.20;;;;;;7365070;19;20015;-78
2022/06/17 00:10:43;;;;;;;7.53;4.10;;;26.30;45.00;;;;;;7365680;19;20209;-78
2022/06/17 00:13:44;;;;;;;5.70;3.92;;;26.20;44.50;;;;;;7367774;19;20551;-78
2022/06/17 00:43:13;;;;;;;;;;;;;;;;;;;;;
2022/06/17 00:45:53;;;;;;;;;;;26.10;45.20;;;;;;7283542;19;2020727;-78
2022/06/17 00:48:48;;;;;;;7.03;4.57;;;26.10;45.30;;;;;;7419994;19;19930;-77
2022/06/17 00:51:38;;;;;;;6.63;4.40;;;26.00;45.20;;;;;;7395478;19;20311;-76
2022/06/17 01:25:47;;;;;;;;;;;;;;;;;;;;;
2022/06/17 02:03:35;;;;;;;7.78;4.10;;;25.60;46.90;;;;;;5806707;19;15291182;-76
2022/06/17 02:07:24;;;;;;;5.82;3.75;;;25.20;46.90;;;;;;7420071;19;20014;-80
2022/06/17 02:25:58;;;;;;;8.68;4.50;;;24.80;47.80;;;;;;7418381;19;20378;-79
2022/06/17 02:28:42;;;;;;;4.80;3.72;;;24.80;47.90;;;;;;7387264;19;20011;-79
2022/06/17 02:34:15;;;;;;;8.15;4.55;;;24.90;48.10;;;;;;7399552;19;20654;-79
2022/06/17 02:40:47;;;;;;;9.52;4.50;;;24.80;48.40;;;;;;7377030;19;20458;-79
2022/06/17 02:53:31;;;;;;;6.53;4.45;;;24.50;49.00;;;;;;7393471;19;20025;-79
2022/06/17 02:56:25;;;;;;;8.55;4.40;;;24.60;48.80;;;;;;7401266;19;20303;-79
2022/06/17 02:59:50;;;;;;;4.85;4.00;;;24.60;48.70;;;;;;7425188;19;20021;-80
2022/06/17 03:06:39;;;;;;;5.15;4.20;;;24.50;48.70;;;;;;7300666;19;2004650;-79
2022/06/17 03:13:19;;;;;;;8.85;4.72;;;24.50;49.00;;;;;;7398316;19;20517;-79
2022/06/17 03:15:55;;;;;;;5.88;4.40;;;24.50;48.80;;;;;;7395166;19;20022;-79
2022/06/17 03:18:31;;;;;;;8.18;4.35;;;24.50;48.60;;;;;;7398038;19;20014;-79
2022/06/17 03:21:06;;;;;;;7.13;3.95;;;24.40;48.70;;;;;;7396733;19;20022;-79
2022/06/17 03:23:50;;;;;;;9.10;4.43;;;24.40;48.80;;;;;;7418951;19;20014;-79
2022/06/17 03:26:30;;;;;;;6.45;4.20;;;24.30;48.90;;;;;;7396133;19;20014;-79
2022/06/17 03:29:13;;;;;;;6.47;4.18;;;24.30;48.80;;;;;;7398743;19;20089;-79
2022/06/17 03:31:52;;;;;;;8.15;4.50;;;24.30;48.80;;;;;;7393216;19;20010;-79
2022/06/17 03:34:32;;;;;;;8.73;4.90;;;24.20;48.80;;;;;;7397041;19;20062;-80
2022/06/17 03:37:18;;;;;;;6.10;4.00;;;24.20;49.00;;;;;;7394123;19;20111;-80
2022/06/17 03:40:03;;;;;;;9.27;4.30;;;24.20;49.10;;;;;;7394681;19;20182;-79
2022/06/17 03:42:43;;;;;;;9.40;4.32;;;24.20;49.30;;;;;;7396044;19;20434;-79
2022/06/17 03:45:23;;;;;;;8.70;4.45;;;24.20;49.50;;;;;;7352291;19;20014;-79
2022/06/17 03:48:03;;;;;;;9.32;4.70;;;24.20;49.10;;;;;;7389357;19;20010;-80
2022/06/17 03:50:40;;;;;;;11.77;4.20;;;24.00;49.10;;;;;;7370361;19;20014;-79
2022/06/17 03:53:30;;;;;;;6.28;4.40;;;24.00;49.40;;;;;;7369132;19;20022;-79
2022/06/17 03:56:17;;;;;;;12.85;4.55;;;24.00;49.70;;;;;;7360819;19;20078;-79
2022/06/17 03:58:54;;;;;;;9.15;4.72;;;24.00;49.70;;;;;;7366082;19;20006;-79
2022/06/17 04:01:35;;;;;;;6.15;4.45;;;23.90;49.80;;;;;;7367662;19;20060;-79
2022/06/17 04:04:17;;;;;;;8.18;5.20;;;24.00;50.00;;;;;;7370013;19;20007;-80
2022/06/17 04:06:56;;;;;;;7.90;5.28;;;24.00;50.30;;;;;;7365318;19;20028;-79
2022/06/17 04:09:31;;;;;;;;;;;23.90;50.40;;;;;;7365408;19;20036;-79
2022/06/17 04:12:32;;;;;;;5.95;4.88;;;24.00;50.40;;;;;;7389629;19;20326;-78
2022/06/17 04:15:13;;;;;;;9.60;5.68;;;24.00;50.50;;;;;;7267612;19;2004560;-79
2022/06/17 04:17:54;;;;;;;9.18;5.28;;;23.90;50.60;;;;;;7390135;19;20588;-79
2022/06/17 04:20:42;;;;;;;10.52;4.75;;;23.90;50.40;;;;;;7365197;19;20022;-79
2022/06/17 04:23:23;;;;;;;11.75;5.25;;;23.90;50.20;;;;;;7366471;19;20014;-79
2022/06/17 04:26:14;;;;;;;6.13;4.85;;;23.90;50.50;;;;;;7368616;19;20021;-79
2022/06/17 04:28:58;;;;;;;6.45;4.82;;;23.90;50.20;;;;;;7367437;19;20049;-79
2022/06/17 04:31:38;;;;;;;7.93;4.70;;;23.80;50.40;;;;;;7356073;19;20069;-80
2022/06/17 04:34:20;;;;;;;9.75;4.90;;;23.80;50.40;;;;;;7364998;19;20010;-79
2022/06/17 04:37:03;;;;;;;6.90;4.95;;;23.70;50.70;;;;;;7362532;19;20026;-80
2022/06/17 04:39:44;;;;;;;13.20;5.05;;;23.80;50.80;;;;;;7363226;19;20047;-79
2022/06/17 04:42:25;;;;;;;9.55;5.25;;;23.80;51.10;;;;;;7370984;19;20066;-79
2022/06/17 04:45:07;;;;;;;7.07;5.28;;;23.70;51.10;;;;;;7391024;19;20838;-79
2022/06/17 04:47:44;;;;;;;9.05;5.57;;;23.70;51.20;;;;;;7371111;19;20021;-79
2022/06/17 04:50:25;;;;;;;9.77;5.70;;;23.80;51.40;;;;;;7348363;19;20023;-80
2022/06/17 04:53:02;;;;;;;10.70;5.10;;;23.90;51.70;;;;;;7367036;19;20643;-80
2022/06/17 04:55:39;;;;;;;8.35;5.43;;;24.00;51.30;;;;;;7364581;19;20050;-79
2022/06/17 04:58:17;;;;;;;6.72;4.75;;;24.00;51.20;;;;;;7368672;19;20118;-79
2022/06/17 05:00:58;;;;;;;6.72;5.05;;;24.00;51.30;;;;;;7366400;19;20014;-79
2022/06/17 05:03:36;;;;;;;12.95;5.40;;;24.00;51.30;;;;;;7380246;19;20034;-79
2022/06/17 05:06:13;;;;;;;14.07;5.35;;;24.00;51.30;;;;;;7376678;19;20110;-79
2022/06/17 05:08:51;;;;;;;12.98;5.65;;;24.00;51.30;;;;;;7394590;19;20055;-79
2022/06/17 05:11:31;;;;;;;6.53;4.55;;;24.00;51.50;;;;;;7371419;19;20039;-78
2022/06/17 05:14:16;;;;;;;9.00;5.20;;;24.10;51.60;;;;;;7363807;19;20050;-79
2022/06/17 05:16:59;;;;;;;9.00;5.65;;;24.20;51.70;;;;;;7361435;19;20010;-79
2022/06/17 05:19:37;;;;;;;14.10;5.85;;;24.20;51.70;;;;;;7369860;19;20009;-79
2022/06/17 05:22:21;;;;;;;9.43;5.00;;;24.30;52.50;;;;;;7367336;19;20014;-79
2022/06/17 05:25:05;;;;;;;12.35;5.35;;;24.30;51.80;;;;;;7367782;19;20021;-79
2022/06/17 05:27:39;;;;;;;8.88;5.70;;;24.30;51.90;;;;;;7361256;19;20010;-78
2022/06/17 05:30:14;;;;;;;9.40;5.53;;;24.30;51.80;;;;;;7363678;19;20021;-78
2022/06/17 05:32:55;;;;;;;11.20;5.25;;;24.40;51.90;;;;;;7389087;19;20019;-79
2022/06/17 05:35:39;;;;;;;10.38;5.40;;;24.40;51.80;;;;;;7368874;19;20124;-79
2022/06/17 05:38:20;;;;;;;7.30;5.40;;;24.50;51.80;;;;;;7366092;19;20027;-79
2022/06/17 05:40:56;;;;;;;11.57;5.30;;;24.50;51.70;;;;;;7363408;19;20018;-79
2022/06/17 05:43:34;;;;;;;9.65;5.20;;;24.50;51.70;;;;;;7350320;19;20125;-79
2022/06/17 05:46:14;;;;;;;8.38;5.35;;;24.60;51.90;;;;;;7339971;19;20139;-79
2022/06/17 05:48:51;;;;;;;15.90;5.30;;;24.60;52.20;;;;;;7363438;19;20025;-79
2022/06/17 05:51:31;;;;;;;10.55;5.07;;;24.60;52.10;;;;;;7366858;19;20010;-79
2022/06/17 05:54:06;;;;;;;9.93;5.30;;;24.70;52.20;;;;;;7363707;19;20015;-79
2022/06/17 05:56:45;;;;;;;10.90;4.82;;;24.70;52.20;;;;;;7385946;19;20019;-79
2022/06/17 05:59:22;;;;;;;10.90;5.35;;;24.80;52.10;;;;;;7365193;19;20025;-79
2022/06/17 06:02:09;;;;;;;10.75;4.90;;;24.90;52.00;;;;;;7358983;19;20019;-80
2022/06/17 06:04:51;;;;;;;12.05;4.47;;;24.90;52.10;;;;;;7366888;19;20009;-79
2022/06/17 06:07:30;;;;;;;8.95;4.82;;;24.90;52.00;;;;;;7362005;19;20011;-79
2022/06/17 06:10:11;;;;;;;7.65;4.70;;;25.00;51.90;;;;;;7363017;19;20098;-79
2022/06/17 06:18:47;;;;;;;7.95;4.30;;;25.20;52.20;;;;;;7370036;19;20022;-81
2022/06/17 06:21:23;;;;;;;7.10;3.75;;;25.30;52.00;;;;;;7366476;19;20015;-79
2022/06/17 06:23:57;;;;;;;14.77;4.57;;;25.30;52.10;;;;;;7386004;19;20455;-79
2022/06/17 06:26:29;;;;;;;6.97;3.78;;;25.40;52.00;;;;;;7367131;19;20150;-80
2022/06/17 06:29:06;;;;;;;11.65;4.00;;;25.50;52.00;;;;;;7364577;19;20086;-80
2022/06/17 06:31:43;;;;;;;9.25;3.45;;;25.60;51.80;;;;;;7358422;19;20066;-78
2022/06/17 06:34:20;;;;;;;6.20;3.35;;;25.70;50.80;;;;;;7364372;19;20022;-78
2022/06/17 06:36:57;;;;;;;7.60;3.63;;;25.80;49.70;;;;;;7362558;19;20040;-79
2022/06/17 06:49:45;;;;;;;7.32;3.45;;;26.10;48.20;;;;;;7351879;19;20133;-80
2022/06/17 06:52:17;;;;;;;7.63;3.50;;;26.30;47.60;;;;;;7378280;19;20311;-79
2022/06/17 06:54:46;;;;;;;20.40;3.88;;;26.30;47.50;;;;;;7364380;19;20073;-77
2022/06/17 06:57:16;;;;;;;6.53;3.47;;;26.30;47.50;;;;;;7363741;19;20046;-78
2022/06/17 06:59:44;;;;;;;11.48;3.60;;;26.40;47.20;;;;;;7386881;19;20026;-78
2022/06/17 07:02:13;;;;;;;11.10;3.72;;;26.50;47.20;;;;;;7364880;19;20011;-79
2022/06/17 07:04:42;;;;;;;7.40;3.63;;;26.50;47.00;;;;;;7363147;19;20483;-78
2022/06/17 07:07:13;;;;;;;13.60;3.92;;;26.50;46.80;;;;;;7363240;19;20441;-80
2022/06/17 07:09:44;;;;;;;17.67;4.05;;;26.50;46.70;;;;;;7364631;19;20038;-81
2022/06/17 07:12:16;;;;;;;9.70;3.30;;;26.60;46.80;;;;;;7362545;19;20030;-80
2022/06/17 07:14:45;;;;;;;15.40;3.67;;;26.60;46.70;;;;;;7380854;19;20015;-80
2022/06/17 07:17:14;;;;;;;10.63;3.70;;;26.60;46.60;;;;;;7364249;19;20098;-81
2022/06/17 07:19:45;;;;;;;8.10;3.53;;;26.70;46.50;;;;;;7370020;19;20411;-80
2022/06/17 07:22:14;;;;;;;;;;;26.80;46.50;;;;;;7372021;19;20015;-79
2022/06/17 07:24:46;;;;;;;8.70;3.47;;;26.90;46.70;;;;;;7366741;19;19930;-80
2022/06/17 07:27:18;;;;;;;9.13;3.47;;;26.90;46.20;;;;;;7371423;19;20177;-80
2022/06/17 07:29:47;;;;;;;9.75;3.63;;;26.90;46.40;;;;;;7394238;19;20018;-80
2022/06/17 07:32:16;;;;;;;13.95;3.80;;;26.90;46.30;;;;;;7370943;19;20025;-80
2022/06/17 07:34:45;;;;;;;13.90;3.20;;;26.90;46.60;;;;;;7368418;19;20052;-80
2022/06/17 07:40:00;;;;;;;5.80;2.90;;;27.00;46.40;;;;;;7371715;19;20018;-80
2022/06/17 07:42:37;;;;;;;5.07;3.20;;;27.00;45.30;;;;;;7367693;19;20019;-79
2022/06/17 07:45:09;;;;;;;6.75;3.20;;;27.10;44.90;;;;;;7366604;19;20014;-80
2022/06/17 07:47:43;;;;;;;5.03;3.28;;;27.10;44.70;;;;;;7387556;19;20310;-80
2022/06/17 07:50:19;;;;;;;8.15;3.28;;;27.10;44.80;;;;;;7369409;19;20048;-80
2022/06/17 07:52:48;;;;;;;10.88;2.97;;;27.20;44.70;;;;;;7369851;19;20086;-81
2022/06/17 07:55:25;;;;;;;4.75;2.85;;;27.30;44.40;;;;;;7368399;19;20179;-80
2022/06/17 07:57:57;;;;;;;6.60;3.30;;;27.20;43.90;;;;;;7371196;19;20067;-81
2022/06/17 08:00:36;;;;;;;7.28;3.03;;;27.30;44.40;;;;;;7364572;19;20018;-81
2022/06/17 08:03:07;;;;;;;8.32;3.38;;;27.30;44.70;;;;;;7367871;19;20616;-81
2022/06/17 08:05:43;;;;;;;6.28;3.05;;;27.30;44.60;;;;;;7389301;19;20115;-80
2022/06/17 08:08:21;;;;;;;7.00;3.00;;;27.40;44.40;;;;;;7370354;19;20033;-81
2022/06/17 08:10:57;;;;;;;10.65;3.15;;;27.40;44.50;;;;;;7368947;19;20018;-80
2022/06/17 08:13:36;;;;;;;12.35;3.13;;;27.40;44.00;;;;;;7362940;19;20011;-80
2022/06/17 08:16:11;;;;;;;6.60;3.10;;;27.40;43.10;;;;;;7368825;19;20092;-80
2022/06/17 08:18:42;;;;;;;11.13;3.05;;;27.40;43.70;;;;;;7359509;19;20023;-80
2022/06/17 08:21:14;;;;;;;10.02;2.97;;;27.50;43.70;;;;;;7366232;19;20022;-80
2022/06/17 08:23:46;;;;;;;10.98;3.28;;;27.50;43.40;;;;;;7387063;19;20010;-80
2022/06/17 08:26:18;;;;;;;16.98;3.45;;;27.50;43.30;;;;;;7366614;19;20010;-80
2022/06/17 08:28:50;;;;;;;8.20;2.75;;;27.60;42.40;;;;;;7367574;19;20448;-80
2022/06/17 08:31:21;;;;;;;7.55;2.80;;;27.60;42.30;;;;;;7368096;19;20026;-80
2022/06/17 08:33:50;;;;;;;10.75;2.55;;;27.60;42.40;;;;;;7363681;19;20335;-79
2022/06/17 08:36:22;;;;;;;9.88;2.95;;;27.70;42.20;;;;;;7367333;19;20030;-79
2022/06/17 08:38:55;;;;;;;14.63;3.10;;;27.70;42.10;;;;;;7389937;19;20014;-79
2022/06/17 08:41:32;;;;;;;8.32;3.13;;;27.70;41.90;;;;;;7369292;19;20015;-79
2022/06/17 08:44:20;;;;;;;6.47;3.17;;;27.70;41.80;;;;;;7368235;19;20022;-80
2022/06/17 08:47:14;;;;;;;5.72;2.90;;;27.70;41.80;;;;;;7368686;19;20036;-79
2022/06/17 08:49:59;;;;;;;9.48;2.85;;;27.80;42.20;;;;;;7368517;19;20086;-79
2022/06/17 08:52:52;;;;;;;7.80;3.03;;;27.80;41.10;;;;;;7369908;19;20010;-79
2022/06/17 08:55:28;;;;;;;6.32;2.63;;;27.80;40.70;;;;;;7367420;19;20018;-78
2022/06/17 08:58:04;;;;;;;4.82;2.60;;;27.90;40.10;;;;;;7365124;19;20023;-78
2022/06/17 09:00:41;;;;;;;8.90;2.50;;;28.00;40.90;;;;;;7368869;19;20348;-78
2022/06/17 09:03:29;;;;;;;6.97;2.55;;;28.00;40.20;;;;;;7363815;19;20019;-78
2022/06/17 09:06:14;;;;;;;8.02;2.72;;;28.00;40.00;;;;;;7384985;19;20026;-79
2022/06/17 09:09:05;;;;;;;6.30;2.75;;;28.10;40.10;;;;;;7392072;19;20056;-80
2022/06/17 09:11:40;;;;;;;8.10;2.65;;;28.10;40.30;;;;;;7371928;19;20014;-79
2022/06/17 09:14:24;;;;;;;6.00;2.72;;;28.10;39.50;;;;;;7370510;19;20018;-78
2022/06/17 09:17:03;;;;;;;3.65;2.20;;;28.10;39.70;;;;;;7369670;19;20073;-79
2022/06/17 09:19:35;;;;;;;3.42;2.55;;;28.10;39.30;;;;;;7371086;19;20014;-79
2022/06/17 09:22:10;;;;;;;4.18;2.40;;;28.20;38.30;;;;;;7366948;19;20128;-78
2022/06/17 09:24:42;;;;;;;8.43;2.97;;;28.20;38.80;;;;;;7369192;19;20017;-79
2022/06/17 09:27:18;;;;;;;9.88;2.40;;;28.30;39.70;;;;;;7368995;19;20090;-78
2022/06/17 09:29:56;;;;;;;9.88;2.58;;;28.20;37.70;;;;;;7391382;19;20015;-78
2022/06/17 09:32:29;;;;;;;3.90;2.25;;;28.30;37.70;;;;;;7368333;19;20112;-78
2022/06/17 09:35:30;;;;;;;5.28;2.53;;;28.40;37.80;;;;;;7366335;19;20011;-81
2022/06/17 09:38:00;;;;;;;;;;;28.40;38.40;;;;;;7368345;19;20046;-78
2022/06/17 09:40:35;;;;;;;9.43;2.20;;;28.30;37.90;;;;;;7369900;19;19930;-79
2022/06/17 09:43:11;;;;;;;8.00;2.55;;;28.30;37.20;;;;;;7365982;19;20042;-77
2022/06/17 09:45:47;;;;;;;5.43;2.35;;;28.40;37.90;;;;;;7368917;19;20057;-78
2022/06/17 09:48:19;;;;;;;6.68;2.17;;;28.40;38.10;;;;;;7366099;19;20039;-77
2022/06/17 09:50:53;;;;;;;4.13;2.47;;;28.50;37.70;;;;;;7387488;19;20026;-78
2022/06/17 09:53:27;;;;;;;7.45;2.40;;;28.40;37.80;;;;;;7366356;19;20031;-77
2022/06/17 09:56:04;;;;;;;5.78;2.10;;;28.40;38.00;;;;;;7368154;19;20023;-78
2022/06/17 09:58:39;;;;;;;5.82;2.08;;;28.50;37.80;;;;;;7369948;19;20064;-80
2022/06/17 10:29:28;;;;;;;4.72;2.33;;;29.00;37.60;;;;;;7362591;19;20144;-82
2022/06/17 10:31:57;;;;;;;5.93;2.40;;;29.00;38.10;;;;;;7384907;19;20027;-80
2022/06/17 10:38:04;;;;;;;7.25;2.40;;;29.10;36.70;;;;;;7387869;19;20004;-86
2022/06/17 10:40:35;;;;;;;10.10;2.35;;;29.20;37.20;;;;;;7377407;19;20018;-89
2022/06/17 10:43:07;;;;;;;6.72;2.15;;;29.20;37.20;;;;;;7374596;19;20028;-91
2022/06/17 10:45:42;;;;;;;8.13;2.10;;;29.30;36.90;;;;;;7373334;19;20018;-87
2022/06/17 10:48:20;;;;;;;5.28;1.80;;;29.30;36.80;;;;;;7376040;19;20009;-88
2022/06/17 10:50:49;;;;;;;3.75;2.17;;;29.40;36.80;;;;;;7398995;19;20035;-89
2022/06/17 10:53:24;;;;;;;8.85;2.35;;;29.50;36.50;;;;;;7381667;19;20031;-86
2022/06/17 10:55:57;;;;;;;5.22;2.38;;;29.50;36.20;;;;;;7396334;19;20019;-86
2022/06/17 10:58:29;;;;;;;6.50;2.20;;;29.60;36.80;;;;;;7396765;19;20445;-86
2022/06/17 11:01:03;;;;;;;4.97;2.22;;;29.60;37.10;;;;;;7386548;19;20036;-86
2022/06/17 11:03:35;;;;;;;4.22;2.25;;;29.60;37.30;;;;;;7380141;19;20129;-86
2022/06/17 11:06:08;;;;;;;5.00;2.35;;;29.70;37.10;;;;;;7383578;19;20014;-87
2022/06/17 11:08:41;;;;;;;5.95;2.10;;;29.70;37.50;;;;;;7406634;19;20003;-85
2022/06/17 11:13:56;;;;;;;6.47;2.20;;;29.70;37.00;;;;;;7391073;19;20035;-86
2022/06/17 11:16:30;;;;;;;3.92;2.47;;;29.70;37.50;;;;;;7392993;19;20015;-87
2022/06/17 11:19:03;;;;;;;9.88;2.20;;;29.70;37.40;;;;;;7391832;19;20018;-87
2022/06/17 11:21:37;;;;;;;2.45;1.80;;;29.80;36.30;;;;;;7389285;19;20037;-87
2022/06/17 11:24:20;;;;;;;3.22;1.83;;;29.80;35.00;;;;;;7402941;19;20097;-86
2022/06/17 11:27:04;;;;;;;3.17;2.30;;;29.90;36.40;;;;;;7424904;19;20011;-90
2022/06/17 11:29:40;;;;;;;7.07;2.17;;;30.00;36.50;;;;;;7396133;19;20067;-83
2022/06/17 11:32:32;;;;;;;4.25;2.20;;;30.00;36.60;;;;;;7375031;19;20015;-82
2022/06/17 11:35:04;;;;;;;4.65;1.95;;;30.00;36.80;;;;;;7373807;19;20010;-81
2022/06/17 11:37:37;;;;;;;3.75;2.30;;;30.10;36.70;;;;;;7374584;19;20010;-82
2022/06/17 11:40:12;;;;;;;3.28;2.10;;;30.10;36.70;;;;;;7372447;19;20414;-81
2022/06/17 11:42:50;;;;;;;3.55;1.98;;;30.20;35.90;;;;;;7373774;19;20461;-83
2022/06/17 11:45:22;;;;;;;7.60;2.00;;;30.20;35.60;;;;;;7372986;19;20312;-81
2022/06/17 11:48:13;;;;;;;4.63;2.03;;;30.40;36.30;;;;;;7403351;19;20006;-81
2022/06/17 11:51:01;;;;;;;7.05;2.05;;;30.40;36.00;;;;;;7389232;19;20018;-81
2022/06/17 11:53:32;;;;;;;4.57;2.10;;;30.50;36.90;;;;;;7383812;19;20029;-80
2022/06/17 11:56:01;;;;;;;;;;;30.60;37.40;;;;;;7380307;19;20023;-81
2022/06/17 11:58:35;;;;;;;2.42;1.80;;;30.70;36.80;;;;;;7378905;19;19915;-83
2022/06/17 12:01:18;;;;;;;4.28;2.60;;;30.80;36.50;;;;;;7380755;19;20437;-80
2022/06/17 12:03:50;;;;;;;5.03;1.98;;;30.80;36.50;;;;;;7375476;19;20378;-81
2022/06/17 12:06:26;;;;;;;4.30;2.30;;;30.70;34.50;;;;;;7375981;19;20268;-80
2022/06/17 12:09:06;;;;;;;5.82;2.10;;;30.80;35.20;;;;;;7394323;19;20018;-79
2022/06/17 12:11:46;;;;;;;3.88;1.95;;;31.00;35.20;;;;;;7373580;19;20111;-80
2022/06/17 12:14:23;;;;;;;3.27;1.90;;;31.00;34.70;;;;;;7373016;19;20046;-80
2022/06/17 12:16:52;;;;;;;2.17;1.55;;;31.10;35.00;;;;;;7373713;19;20017;-80
2022/06/17 12:19:24;;;;;;;2.75;1.70;;;31.20;34.80;;;;;;7372555;19;20019;-80
2022/06/17 12:21:59;;;;;;;3.90;1.83;;;31.30;34.30;;;;;;7369723;19;20014;-80
2022/06/17 12:24:39;;;;;;;2.20;1.70;;;31.20;33.90;;;;;;7373500;19;20014;-80
2022/06/17 12:27:26;;;;;;;4.68;2.05;;;31.20;34.00;;;;;;7372470;19;20010;-80
2022/06/17 12:30:01;;;;;;;5.15;2.30;;;31.20;34.50;;;;;;7391555;19;20405;-80
2022/06/17 12:32:37;;;;;;;5.35;2.10;;;31.20;34.90;;;;;;7371604;19;20351;-80
2022/06/17 12:35:15;;;;;;;6.40;2.10;;;31.30;35.20;;;;;;7370467;19;20342;-81
2022/06/17 12:37:53;;;;;;;7.15;2.30;;;31.40;35.60;;;;;;7368351;19;20053;-80
2022/06/17 12:40:31;;;;;;;3.05;1.95;;;31.50;35.30;;;;;;7368346;19;20007;-79
2022/06/17 12:43:09;;;;;;;3.28;2.20;;;31.60;35.50;;;;;;7368336;19;20525;-79
2022/06/17 12:45:50;;;;;;;6.13;2.10;;;31.70;35.60;;;;;;7370181;19;20048;-80
2022/06/17 12:48:25;;;;;;;;;;;31.80;35.00;;;;;;7370950;19;20105;-81
2022/06/17 12:53:58;;;;;;;3.08;2.00;;;32.00;35.30;;;;;;7370019;19;20011;-81
2022/06/17 12:56:40;;;;;;;;;;;32.10;35.30;;;;;;7370936;19;20015;-80
2022/06/17 12:59:34;;;;;;;3.40;2.28;;;32.10;34.90;;;;;;7369516;19;19930;-80
2022/06/17 13:46:52;;;;;;;9.32;2.25;;;33.00;33.10;;;;;;7363829;19;20664;-81
2022/06/17 13:49:36;;;;;;;4.40;1.77;;;33.10;32.90;;;;;;7365076;19;20018;-82
2022/06/17 13:52:48;;;;;;;4.25;1.83;;;33.10;32.90;;;;;;7365158;19;20086;-82
2022/06/17 13:55:36;;;;;;;3.45;1.55;;;33.20;32.80;;;;;;7359746;19;20027;-81
2022/06/17 13:58:18;;;;;;;3.35;1.65;;;33.40;32.80;;;;;;7356582;19;20078;-81
2022/06/17 14:00:53;;;;;;;5.95;1.60;;;33.40;31.80;;;;;;7362191;19;20014;-81
2022/06/17 14:04:17;;;;;;;3.20;1.40;;;33.40;32.50;;;;;;7364594;19;20019;-82
2022/06/17 14:07:03;;;;;;;6.38;1.80;;;33.60;32.70;;;;;;7352002;19;20018;-81
2022/06/17 14:09:51;;;;;;;5.43;1.60;;;33.60;32.20;;;;;;7360433;19;20039;-81
2022/06/17 14:12:50;;;;;;;4.20;2.20;;;33.70;31.90;;;;;;7353512;19;20629;-83
2022/06/17 14:15:34;;;;;;;4.18;2.13;;;33.80;32.50;;;;;;7361577;19;20482;-82
2022/06/17 14:18:09;;;;;;;3.38;1.50;;;33.80;32.50;;;;;;7362612;19;20018;-81
2022/06/17 14:20:49;;;;;;;4.70;1.90;;;33.90;31.90;;;;;;7389326;19;20018;-82
2022/06/17 14:23:45;;;;;;;5.63;1.73;;;33.90;31.30;;;;;;7364594;19;20014;-81
2022/06/17 14:26:38;;;;;;;4.60;1.80;;;34.00;32.00;;;;;;7366406;19;20014;-83
2022/06/17 14:29:37;;;;;;;2.20;1.50;;;34.00;31.90;;;;;;7363044;19;20133;-82
2022/06/17 14:33:11;;;;;;;3.08;1.90;;;34.10;31.80;;;;;;7366974;19;20018;-82
2022/06/17 14:36:20;;;;;;;1.90;1.65;;;34.10;32.10;;;;;;7365418;19;20442;-82
2022/06/17 14:39:08;;;;;;;5.40;1.95;;;34.00;32.10;;;;;;7365728;19;20024;-81
2022/06/17 14:48:19;;;;;;;4.90;1.60;;;34.30;31.30;;;;;;7365087;19;20029;-81
2022/06/17 14:51:55;;;;;;;2.35;1.48;;;34.30;31.90;;;;;;7363853;19;20018;-81
2022/06/17 14:55:06;;;;;;;2.28;1.75;;;34.50;31.80;;;;;;7161238;19;2004514;-82
2022/06/17 15:01:06;;;;;;;3.10;1.83;;;34.50;32.30;;;;;;7361922;19;20713;-82
2022/06/17 15:04:13;;;;;;;4.38;1.85;;;34.60;32.70;;;;;;7345108;19;20011;-82
2022/06/17 15:11:00;;;;;;;6.13;2.20;;;35.00;31.80;;;;;;7372031;19;20027;-82
2022/06/17 15:32:01;;;;;;;6.50;2.47;;;35.70;29.80;;;;;;7367287;19;20022;-83
2022/06/17 15:58:57;;;;;;;5.75;2.40;;;40.30;27.10;;;;;;7393958;19;20098;-83
2022/06/17 16:02:08;;;;;;;8.90;2.83;;;40.50;27.20;;;;;;7367971;19;20011;-82
2022/06/17 16:08:47;;;;;;;5.30;2.08;;;41.10;26.40;;;;;;7375546;19;20010;-83
2022/06/17 21:03:23;;;;;;;6.93;3.13;;;30.60;45.70;;;;;;7412849;19;20022;-86
2022/06/17 21:06:10;;;;;;;10.27;3.63;;;30.50;45.90;;;;;;7387803;19;20014;-86
2022/06/17 21:08:54;;;;;;;7.05;3.63;;;30.50;46.10;;;;;;7384761;19;20049;-87
2022/06/17 21:11:35;;;;;;;8.13;3.28;;;30.40;46.40;;;;;;7375456;19;20022;-86
2022/06/17 21:14:18;;;;;;;5.68;3.30;;;30.40;46.70;;;;;;7388096;19;20015;-86
2022/06/17 21:16:54;;;;;;;7.57;3.65;;;30.30;46.80;;;;;;7376461;19;20046;-86
2022/06/17 21:19:35;;;;;;;4.65;3.20;;;30.30;46.80;;;;;;7367173;19;20043;-86
2022/06/17 21:22:28;;;;;;;4.40;3.33;;;30.20;47.10;;;;;;7336622;19;20019;-83
2022/06/17 21:31:25;;;;;;;7.13;4.03;;;30.00;47.20;;;;;;7370955;19;20026;-83
2022/06/17 22:22:30;;;;;;;9.75;4.07;;;29.30;48.10;;;;;;7339323;19;20011;-83
2022/06/17 22:31:39;;;;;;;;;;;29.10;48.40;;;;;;7346378;19;20018;-83
2022/06/17 22:53:51;;;;;;;6.72;3.40;;;28.90;48.60;;;;;;7374618;19;20295;-82
2022/06/17 22:59:36;;;;;;;;;;;28.80;48.70;;;;;;7374065;19;20500;-82
2022/06/17 23:05:49;;;;;;;3.95;3.38;;;28.70;48.80;;;;;;7297306;19;20018;-82
2022/06/17 23:08:44;;;;;;;6.25;3.88;;;28.70;48.80;;;;;;7391121;19;20027;-82
2022/06/17 23:11:51;;;;;;;7.10;3.83;;;28.70;48.90;;;;;;7372288;19;20007;-82
2022/06/17 23:15:19;;;;;;;5.72;3.80;;;28.70;48.80;;;;;;7373685;19;20015;-83
2022/06/17 23:38:32;;;;;;;7.30;3.53;;;28.40;49.40;;;;;;7373064;19;20021;-83
